Time,TemperatureF,DewpointF,PressureIn,WindDirection,WindDirectionDegrees,WindSpeedMPH,WindSpeedGustMPH,Humidity,HourlyPrecipIn,Conditions,Clouds,dailyrainin,SoftwareType,DateUTC
2013-08-30 07:21:00,55.0,54.0,30.01,ESE,114,0.0,0.0,97,0.00,,,0.01,,2013-08-30 14:21:00,
2013-08-30 07:52:00,56.0,55.0,30.01,ESE,114,0.0,0.0,97,0.00,,,0.01,,2013-08-30 14:52:00,
2013-08-30 08:22:00,58.0,57.0,30.01,ENE,75,0.0,0.0,98,0.00,,,0.01,,2013-08-30 15:22:00,
2013-08-30 08:33:00,58.0,57.0,30.01,ENE,75,0.0,0.0,98,0.00,,,0.01,,2013-08-30 15:33:00,
2013-08-30 08:54:00,61.0,60.0,30.01,West,277,1.0,3.0,96,0.00,,,0.01,,2013-08-30 15:54:00,
2013-08-30 09:22:00,67.0,60.0,30.01,NW,314,2.0,3.0,79,0.00,,,0.01,,2013-08-30 16:22:00,
2013-08-30 09:24:00,64.0,59.0,30.01,SSW,205,0.0,6.0,84,0.00,,,0.01,,2013-08-30 16:24:00,
2013-08-30 09:53:00,67.0,60.0,30.01,NW,314,2.0,3.0,79,0.00,,,0.01,,2013-08-30 16:53:00,
2013-08-30 10:03:00,67.0,60.0,30.01,NW,314,2.0,3.0,79,0.00,,,0.01,,2013-08-30 17:03:00,
2013-08-30 10:13:00,67.0,60.0,30.01,NW,314,2.0,3.0,79,0.00,,,0.01,,2013-08-30 17:13:00,
2013-08-30 10:53:00,72.0,60.0,30.01,WNW,288,1.0,2.0,67,0.00,,,0.01,,2013-08-30 17:53:00,
2013-08-30 11:21:00,80.0,62.0,30.01,West,267,2.0,5.0,54,0.00,,,0.01,,2013-08-30 18:21:00,
2013-08-30 11:32:00,80.0,62.0,30.01,West,267,2.0,5.0,54,0.00,,,0.01,,2013-08-30 18:32:00,
2013-08-30 11:52:00,82.0,62.0,30.00,West,263,1.0,4.0,51,0.00,,,0.00,,2013-08-30 18:52:00,
2013-08-30 12:12:00,84.0,62.0,30.00,NW,310,2.0,4.0,48,0.00,,,0.00,,2013-08-30 19:12:00,
2013-08-30 12:21:00,85.0,62.0,30.00,SSE,166,2.0,5.0,46,0.00,,,0.00,,2013-08-30 19:21:00,
2013-08-30 12:53:00,85.0,61.0,30.00,SE,125,2.0,5.0,45,0.00,,,0.00,,2013-08-30 19:53:00,
2013-08-30 13:22:00,86.0,60.0,29.98,ESE,105,3.0,9.0,42,0.00,,,0.00,,2013-08-30 20:22:00,
2013-08-30 13:52:00,87.0,60.0,29.98,East,94,3.0,6.0,41,0.00,,,0.00,,2013-08-30 20:52:00,
2013-08-30 14:21:00,88.0,60.0,29.97,SSE,165,2.0,9.0,39,0.00,,,0.00,,2013-08-30 21:21:00,
2013-08-30 14:54:00,90.0,60.0,29.96,East,86,2.0,6.0,37,0.00,,,0.00,,2013-08-30 21:54:00,
2013-08-30 15:24:00,89.0,58.0,29.95,South,175,3.0,6.0,35,0.00,,,0.00,,2013-08-30 22:24:00,
2013-08-30 15:54:00,90.0,57.0,29.94,SE,146,3.0,7.0,33,0.00,,,0.00,,2013-08-30 22:54:00,
2013-08-30 16:12:00,90.0,56.0,29.93,South,179,2.0,7.0,32,0.00,,,0.00,,2013-08-30 23:12:00,
2013-08-30 16:22:00,90.0,56.0,29.93,South,179,2.0,7.0,32,0.00,,,0.00,,2013-08-30 23:22:00,
2013-08-30 16:53:00,91.0,56.0,29.92,SSE,161,2.0,6.0,31,0.00,,,0.00,,2013-08-30 23:53:00,
2013-08-30 17:21:00,90.0,59.0,29.91,SE,141,3.0,6.0,35,0.00,,,0.00,,2013-08-31 00:21:00,
2013-08-30 17:52:00,88.0,58.0,29.90,South,189,3.0,7.0,36,0.00,,,0.00,,2013-08-31 00:52:00,
2013-08-30 18:21:00,88.0,58.0,29.89,SSW,193,3.0,6.0,36,0.00,,,0.00,,2013-08-31 01:21:00,
2013-08-30 18:52:00,86.0,58.0,29.89,SSW,202,2.0,6.0,39,0.00,,,0.00,,2013-08-31 01:52:00,
2013-08-30 19:22:00,84.0,58.0,29.89,SSE,156,2.0,7.0,42,0.00,,,0.00,,2013-08-31 02:22:00,
2013-08-30 19:42:00,82.0,59.0,29.88,ESE,115,2.0,6.0,45,0.00,,,0.00,,2013-08-31 02:42:00,
2013-08-30 19:52:00,82.0,59.0,29.88,ESE,115,2.0,6.0,45,0.00,,,0.00,,2013-08-31 02:52:00,
2013-08-30 20:02:00,82.0,59.0,29.88,ESE,115,2.0,6.0,45,0.00,,,0.00,,2013-08-31 03:02:00,